createdAt,value
2023-03-14T00:00:45.161Z,85
2023-03-14T00:01:28.096Z,85
2023-03-14T00:02:23.753Z,85
2023-03-14T00:03:24.896Z,85
2023-03-14T00:04:23.313Z,86
2023-03-14T00:05:23.990Z,86
2023-03-14T00:06:36.480Z,86
2023-03-14T00:07:22.207Z,85
2023-03-14T00:08:32.056Z,86
2023-03-14T00:09:31.505Z,85
2023-03-14T00:10:30.590Z,86
2023-03-14T00:11:22.956Z,86
2023-03-14T00:12:26.845Z,86
2023-03-14T00:13:29.134Z,86
2023-03-14T00:14:29.644Z,86
2023-03-14T00:15:25.118Z,86
2023-03-14T00:16:39.329Z,87
2023-03-14T00:17:34.807Z,87
2023-03-14T00:18:24.654Z,87
2023-03-14T00:19:24.148Z,86
2023-03-14T00:20:36.175Z,86
2023-03-14T00:21:29.510Z,85
2023-03-14T00:22:25.078Z,85
2023-03-14T00:23:22.438Z,86
2023-03-14T00:24:21.689Z,86
2023-03-14T00:25:29.080Z,86
2023-03-14T00:26:23.478Z,86
2023-03-14T00:27:22.633Z,86
2023-03-14T00:28:30.221Z,86
2023-03-14T00:29:24.682Z,85
2023-03-14T00:30:28.394Z,84
2023-03-14T00:31:35.162Z,84
2023-03-14T00:32:33.781Z,83
2023-03-14T00:33:27.877Z,84
2023-03-14T00:34:26.107Z,83
2023-03-14T00:35:28.839Z,84
2023-03-14T00:36:25.118Z,84
2023-03-14T00:37:20.994Z,83
2023-03-14T00:38:30.976Z,84
2023-03-14T00:39:27.965Z,83
2023-03-14T00:40:22.959Z,84
2023-03-14T00:41:24.595Z,82
2023-03-14T00:42:23.031Z,83
2023-03-14T00:43:25.054Z,84
2023-03-14T00:44:20.962Z,83
2023-03-14T00:45:30.294Z,83
2023-03-14T00:47:22.845Z,81
2023-03-14T00:48:26.778Z,83
2023-03-14T00:49:20.198Z,84
2023-03-14T00:50:21.709Z,83
2023-03-14T00:51:20.954Z,83
2023-03-14T00:52:22.657Z,83
2023-03-14T00:53:28.455Z,83
2023-03-14T00:54:22.587Z,82
2023-03-14T00:55:31.353Z,84
2023-03-14T00:56:25.173Z,84
2023-03-14T00:57:24.787Z,85
2023-03-14T00:58:20.981Z,85
2023-03-14T00:59:34.348Z,84
2023-03-14T01:00:26.696Z,82
2023-03-14T01:01:24.456Z,82
2023-03-14T01:02:36.101Z,83
2023-03-14T01:03:29.959Z,83
2023-03-14T01:04:21.176Z,81
2023-03-14T01:05:21.816Z,81
2023-03-14T01:06:32.627Z,83
2023-03-14T01:07:27.257Z,82
2023-03-14T01:08:24.111Z,82
2023-03-14T01:09:23.138Z,84
2023-03-14T01:10:32.747Z,84
2023-03-14T01:11:25.156Z,81
2023-03-14T01:12:20.885Z,83
2023-03-14T01:13:32.700Z,82
2023-03-14T01:14:27.154Z,81
2023-03-14T01:15:23.988Z,82
2023-03-14T01:16:35.876Z,82
2023-03-14T01:17:28.964Z,81
2023-03-14T01:18:25.502Z,81
2023-03-14T01:19:22.623Z,82
2023-03-14T01:20:23.654Z,84
2023-03-14T01:21:26.955Z,83
2023-03-14T01:22:23.177Z,83
2023-03-14T01:23:35.168Z,83
2023-03-14T01:24:30.606Z,84
2023-03-14T01:25:25.120Z,83
2023-03-14T01:26:21.193Z,83
2023-03-14T01:27:27.331Z,83
2023-03-14T01:28:20.217Z,83
2023-03-14T01:29:24.537Z,84
2023-03-14T01:30:36.335Z,84
2023-03-14T01:31:29.972Z,83
2023-03-14T01:32:26.609Z,84
2023-03-14T01:33:21.104Z,84
2023-03-14T01:34:23.024Z,84
2023-03-14T01:35:28.278Z,83
2023-03-14T01:36:23.152Z,84
2023-03-14T01:37:23.097Z,83
2023-03-14T01:38:30.819Z,83
2023-03-14T01:39:25.342Z,83
2023-03-14T01:40:23.986Z,84
2023-03-14T01:41:27.429Z,84
2023-03-14T01:42:19.636Z,85
2023-03-14T01:43:22.982Z,85
2023-03-14T01:44:35.107Z,84
2023-03-14T01:45:29.441Z,84
2023-03-14T01:46:26.850Z,84
2023-03-14T01:47:21.049Z,84
2023-03-14T01:48:30.485Z,84
2023-03-14T01:49:24.526Z,84
2023-03-14T01:50:23.691Z,84
2023-03-14T01:51:36.209Z,84
2023-03-14T01:52:28.443Z,84
2023-03-14T01:53:40.320Z,85
2023-03-14T01:54:22.602Z,84
2023-03-14T01:55:38.379Z,84
2023-03-14T01:56:29.579Z,85
2023-03-14T01:57:22.860Z,85
2023-03-14T01:58:24.521Z,85
2023-03-14T01:59:44.567Z,85
2023-03-14T02:00:26.765Z,85
2023-03-14T02:08:23.834Z,84
2023-03-14T02:09:46.207Z,84
2023-03-14T02:10:38.191Z,84
2023-03-14T02:16:33.663Z,84
2023-03-14T02:17:27.100Z,84
2023-03-14T02:18:26.329Z,84
2023-03-14T02:19:30.543Z,84
2023-03-14T02:20:32.106Z,84
2023-03-14T02:21:21.778Z,85
2023-03-14T02:22:22.652Z,85
2023-03-14T02:23:32.919Z,84
2023-03-14T02:24:27.009Z,85
2023-03-14T02:25:24.698Z,85
2023-03-14T02:26:29.566Z,85
2023-03-14T02:27:22.202Z,85
2023-03-14T02:28:28.078Z,85
2023-03-14T02:29:21.220Z,85
2023-03-14T02:30:46.280Z,85
2023-03-14T02:31:28.562Z,85
2023-03-14T02:32:23.431Z,86
2023-03-14T02:33:34.662Z,85
2023-03-14T02:34:26.764Z,85
2023-03-14T02:35:19.804Z,85
2023-03-14T02:36:23.541Z,85
2023-03-14T02:37:46.349Z,85
2023-03-14T02:38:29.302Z,85
2023-03-14T02:39:25.144Z,85
2023-03-14T02:40:39.266Z,86
2023-03-14T02:41:30.800Z,85
2023-03-14T02:42:25.013Z,86
2023-03-14T02:43:20.961Z,85
2023-03-14T02:44:22.811Z,85
2023-03-14T02:45:31.387Z,85
2023-03-14T02:46:22.898Z,85
2023-03-14T02:47:43.407Z,85
2023-03-14T02:48:31.055Z,85
2023-03-14T02:49:27.453Z,85
2023-03-14T02:50:21.568Z,86
2023-03-14T02:51:24.834Z,85
2023-03-14T02:52:27.207Z,85
2023-03-14T02:53:22.768Z,85
2023-03-14T02:54:36.271Z,85
2023-03-14T02:55:38.515Z,85
2023-03-14T02:56:28.674Z,85
2023-03-14T02:57:25.102Z,85
2023-03-14T02:58:33.842Z,85
2023-03-14T02:59:21.674Z,85
2023-03-14T03:00:23.281Z,85
2023-03-14T03:01:52.617Z,85
2023-03-14T03:02:35.351Z,85
2023-03-14T03:03:25.321Z,85
2023-03-14T03:04:21.223Z,85
2023-03-14T03:05:22.336Z,85
2023-03-14T03:06:27.099Z,85
2023-03-14T03:07:23.638Z,85
2023-03-14T03:08:37.436Z,85
2023-03-14T03:09:30.294Z,84
2023-03-14T03:10:39.792Z,84
2023-03-14T03:11:21.215Z,84
2023-03-14T03:12:25.622Z,83
2023-03-14T03:13:34.416Z,83
2023-03-14T03:14:24.224Z,83
2023-03-14T03:15:59.806Z,83
2023-03-14T03:16:45.088Z,84
2023-03-14T03:17:27.117Z,83
2023-03-14T03:18:21.859Z,82
2023-03-14T03:19:31.026Z,83
2023-03-14T03:20:22.892Z,83
2023-03-14T03:21:24.900Z,82
2023-03-14T03:22:20.810Z,82
2023-03-14T03:23:28.943Z,82
2023-03-14T03:24:26.298Z,81
2023-03-14T03:25:22.940Z,82
2023-03-14T03:26:35.503Z,82
2023-03-14T03:27:27.663Z,82
2023-03-14T03:28:20.633Z,82
2023-03-14T03:29:25.037Z,82
2023-03-14T03:30:32.608Z,81
2023-03-14T03:31:25.693Z,82
2023-03-14T03:32:36.513Z,82
2023-03-14T03:33:33.630Z,81
2023-03-14T03:34:28.373Z,82
2023-03-14T03:35:23.522Z,82
2023-03-14T03:36:29.057Z,82
2023-03-14T03:37:21.949Z,81
2023-03-14T03:38:24.952Z,81
2023-03-14T03:39:20.696Z,82
2023-03-14T03:40:42.618Z,82
2023-03-14T03:41:28.355Z,83
2023-03-14T03:42:24.905Z,82
2023-03-14T03:43:20.671Z,82
2023-03-14T03:44:28.090Z,82
2023-03-14T03:45:25.974Z,80
2023-03-14T03:46:20.974Z,81
2023-03-14T03:47:32.952Z,80
2023-03-14T03:48:28.522Z,81
2023-03-14T03:49:22.643Z,81
2023-03-14T03:50:26.838Z,80
2023-03-14T03:51:33.795Z,80
2023-03-14T03:52:25.531Z,81
2023-03-14T03:53:32.927Z,80
2023-03-14T03:54:32.705Z,80
2023-03-14T03:55:43.649Z,80
2023-03-14T03:56:24.608Z,81
2023-03-14T03:57:28.951Z,81
2023-03-14T03:58:21.395Z,81
2023-03-14T03:59:29.484Z,80
2023-03-14T04:00:20.592Z,81
2023-03-14T04:01:35.549Z,81
2023-03-14T04:02:42.370Z,81
2023-03-14T04:03:25.099Z,81
2023-03-14T04:04:34.746Z,82
2023-03-14T04:05:25.473Z,80
2023-03-14T04:06:25.238Z,80
2023-03-14T04:07:21.409Z,80
2023-03-14T04:08:33.594Z,80
2023-03-14T04:09:27.269Z,81
2023-03-14T04:10:25.662Z,80
2023-03-14T04:11:35.251Z,81
2023-03-14T04:12:30.877Z,81
2023-03-14T04:13:25.207Z,81
2023-03-14T04:14:21.009Z,81
2023-03-14T04:15:23.796Z,81
2023-03-14T04:16:27.080Z,82
2023-03-14T04:17:24.875Z,82
2023-03-14T04:18:34.760Z,81
2023-03-14T04:19:29.040Z,82
2023-03-14T04:20:29.373Z,82
2023-03-14T04:21:22.272Z,82
2023-03-14T04:22:26.995Z,82
2023-03-14T04:23:19.793Z,81
2023-03-14T04:24:23.379Z,81
2023-03-14T04:25:35.164Z,80
2023-03-14T04:26:28.440Z,79
2023-03-14T04:27:26.293Z,80
2023-03-14T04:28:25.334Z,81
2023-03-14T04:29:32.263Z,80
2023-03-14T04:30:23.942Z,81
2023-03-14T04:31:20.596Z,81
2023-03-14T04:32:36.438Z,82
2023-03-14T04:33:45.024Z,83
2023-03-14T04:34:49.765Z,84
2023-03-14T04:35:22.685Z,84
2023-03-14T04:36:20.896Z,85
2023-03-14T04:37:27.994Z,84
2023-03-14T04:38:20.894Z,84
2023-03-14T04:39:53.838Z,84
2023-03-14T04:40:46.883Z,85
2023-03-14T04:41:40.855Z,85
2023-03-14T04:42:32.322Z,85
2023-03-14T04:43:24.584Z,85
2023-03-14T04:44:26.895Z,85
2023-03-14T04:45:25.783Z,85
2023-03-14T04:46:48.643Z,85
2023-03-14T04:47:44.221Z,85
2023-03-14T04:48:26.490Z,85
2023-03-14T04:49:36.645Z,85
2023-03-14T04:50:33.112Z,85
2023-03-14T04:51:23.949Z,85
2023-03-14T04:52:22.932Z,85
2023-03-14T04:53:22.449Z,83
2023-03-14T04:54:29.326Z,83
2023-03-14T04:55:25.713Z,84
2023-03-14T04:56:22.227Z,83
2023-03-14T04:57:34.532Z,84
2023-03-14T04:58:27.228Z,84
2023-03-14T04:59:21.942Z,85
2023-03-14T05:00:29.856Z,85
2023-03-14T05:01:20.382Z,84
2023-03-14T05:02:26.936Z,85
2023-03-14T05:03:21.970Z,85
2023-03-14T05:04:33.312Z,85
2023-03-14T05:05:31.910Z,84
2023-03-14T05:06:22.833Z,85
2023-03-14T05:07:34.882Z,83
2023-03-14T05:08:24.776Z,84
2023-03-14T05:09:25.238Z,83
2023-03-14T05:10:21.076Z,83
2023-03-14T05:11:32.700Z,83
2023-03-14T05:12:28.570Z,83
2023-03-14T05:13:23.836Z,82
2023-03-14T05:14:20.624Z,82
2023-03-14T05:15:29.782Z,83
2023-03-14T05:16:23.468Z,83
2023-03-14T05:17:36.407Z,83
2023-03-14T05:18:31.116Z,84
2023-03-14T05:19:28.403Z,84
2023-03-14T05:20:23.247Z,82
2023-03-14T05:21:23.567Z,83
2023-03-14T05:22:29.160Z,83
2023-03-14T05:23:25.148Z,83
2023-03-14T05:24:23.629Z,83
2023-03-14T05:25:33.080Z,83
2023-03-14T05:26:42.916Z,83
2023-03-14T05:27:23.152Z,83
2023-03-14T05:28:29.474Z,83
2023-03-14T05:29:20.635Z,83
2023-03-14T05:30:25.147Z,84
2023-03-14T05:31:22.378Z,84
2023-03-14T05:32:32.727Z,83
2023-03-14T05:33:24.018Z,82
2023-03-14T05:34:40.623Z,83
2023-03-14T05:35:35.528Z,83
2023-03-14T05:36:24.861Z,82
2023-03-14T05:37:40.386Z,82
2023-03-14T05:38:26.930Z,82
2023-03-14T05:39:32.359Z,83
2023-03-14T05:40:27.154Z,84
2023-03-14T05:41:24.240Z,84
2023-03-14T05:42:37.821Z,83
2023-03-14T05:43:28.845Z,82
2023-03-14T05:44:24.671Z,82
2023-03-14T05:45:21.062Z,82
2023-03-14T05:46:24.044Z,82
2023-03-14T05:47:27.549Z,83
2023-03-14T05:48:23.158Z,82
2023-03-14T05:49:57.005Z,83
2023-03-14T05:50:26.020Z,83
2023-03-14T05:51:26.172Z,83
2023-03-14T05:52:22.938Z,82
2023-03-14T05:53:29.879Z,83
2023-03-14T05:54:21.133Z,83
2023-03-14T05:55:22.967Z,82
2023-03-14T05:56:35.924Z,83
2023-03-14T05:57:30.058Z,82
2023-03-14T05:58:26.706Z,82
2023-03-14T05:59:22.563Z,83
2023-03-14T06:00:33.976Z,82
2023-03-14T06:01:26.506Z,82
2023-03-14T06:02:37.169Z,81
2023-03-14T06:03:34.994Z,82
2023-03-14T06:04:30.422Z,83
2023-03-14T06:05:26.110Z,81
2023-03-14T06:06:26.948Z,82
2023-03-14T06:07:21.284Z,81
2023-03-14T06:08:29.365Z,81
2023-03-14T06:09:23.061Z,81
2023-03-14T06:10:34.417Z,81
2023-03-14T06:11:31.164Z,82
2023-03-14T06:12:19.601Z,82
2023-03-14T06:13:35.045Z,82
2023-03-14T06:14:25.054Z,82
2023-03-14T06:15:59.949Z,82
2023-03-14T06:16:27.102Z,83
2023-03-14T06:17:20.019Z,82
2023-03-14T06:18:26.701Z,81
2023-03-14T06:19:25.281Z,82
2023-03-14T06:20:36.742Z,83
2023-03-14T06:21:27.474Z,82
2023-03-14T06:22:20.055Z,82
2023-03-14T06:23:23.783Z,82
2023-03-14T06:24:25.761Z,82
2023-03-14T06:25:44.766Z,80
2023-03-14T06:26:45.649Z,79
2023-03-14T06:27:40.639Z,81
2023-03-14T06:28:35.267Z,80
2023-03-14T06:30:23.331Z,80
2023-03-14T06:31:28.270Z,80
2023-03-14T06:32:21.303Z,80
2023-03-14T06:33:51.359Z,81
2023-03-14T06:34:43.929Z,83
2023-03-14T06:35:27.933Z,83
2023-03-14T06:36:28.364Z,84
2023-03-14T06:38:34.054Z,84
2023-03-14T06:39:25.441Z,84
2023-03-14T06:40:41.153Z,84
2023-03-14T06:41:21.179Z,85
2023-03-14T06:42:32.032Z,85
2023-03-14T06:43:34.384Z,86
2023-03-14T06:44:27.585Z,85
2023-03-14T06:45:37.326Z,85
2023-03-14T06:46:24.029Z,85
2023-03-14T06:47:25.356Z,84
2023-03-14T06:48:21.290Z,83
2023-03-14T06:49:32.771Z,84
2023-03-14T06:50:37.483Z,84
2023-03-14T06:51:23.523Z,85
2023-03-14T06:52:24.299Z,85
2023-03-14T06:53:29.511Z,85
2023-03-14T06:54:28.638Z,84
2023-03-14T06:55:22.506Z,85
2023-03-14T06:56:49.222Z,86
2023-03-14T06:57:22.513Z,85
2023-03-14T06:58:23.685Z,85
2023-03-14T06:59:26.490Z,86
2023-03-14T07:00:19.854Z,86
2023-03-14T07:01:25.174Z,86
2023-03-14T07:02:39.845Z,86
2023-03-14T07:03:25.599Z,86
2023-03-14T07:04:29.288Z,87
2023-03-14T07:05:22.994Z,87
2023-03-14T07:06:32.820Z,88
2023-03-14T07:07:23.607Z,88
2023-03-14T07:08:25.442Z,88
2023-03-14T07:09:21.041Z,88
2023-03-14T07:10:21.403Z,90
2023-03-14T07:11:29.043Z,90
2023-03-14T07:12:23.478Z,90
2023-03-14T07:13:36.078Z,90
2023-03-14T07:14:24.459Z,90
2023-03-14T07:15:21.909Z,90
2023-03-14T07:16:34.102Z,90
2023-03-14T07:17:26.920Z,90
2023-03-14T07:18:27.220Z,89
2023-03-14T07:19:38.871Z,87
2023-03-14T07:20:28.426Z,88
2023-03-14T07:21:35.717Z,87
2023-03-14T07:22:25.310Z,88
2023-03-14T07:23:23.372Z,88
2023-03-14T07:24:32.601Z,88
2023-03-14T07:25:23.154Z,88
2023-03-14T07:26:35.208Z,88
2023-03-14T07:27:34.152Z,88
2023-03-14T07:28:30.432Z,87
2023-03-14T07:29:25.335Z,87
2023-03-14T07:30:22.488Z,87
2023-03-14T07:31:25.629Z,88
2023-03-14T07:32:28.353Z,87
2023-03-14T07:33:20.027Z,87
2023-03-14T07:34:48.243Z,87
2023-03-14T07:35:41.336Z,87
2023-03-14T07:36:25.285Z,87
2023-03-14T07:37:21.455Z,87
2023-03-14T07:38:31.051Z,86
2023-03-14T07:39:32.140Z,87
2023-03-14T07:40:24.434Z,87
2023-03-14T07:41:36.232Z,87
2023-03-14T07:42:21.247Z,87
2023-03-14T07:43:27.641Z,86
2023-03-14T07:44:20.999Z,87
2023-03-14T07:45:22.138Z,87
2023-03-14T07:46:27.837Z,87
2023-03-14T07:47:30.749Z,87
2023-03-14T07:48:21.410Z,87
2023-03-14T07:49:40.755Z,87
2023-03-14T07:50:25.819Z,86
2023-03-14T07:51:21.212Z,86
2023-03-14T07:52:26.907Z,87
2023-03-14T07:53:21.709Z,86
2023-03-14T07:54:22.826Z,85
2023-03-14T07:55:26.247Z,86
2023-03-14T07:56:29.500Z,86
2023-03-14T07:57:26.663Z,87
2023-03-14T07:58:21.101Z,87
2023-03-14T07:59:23.587Z,87
2023-03-14T08:00:23.411Z,87
2023-03-14T08:01:37.890Z,88
2023-03-14T08:02:31.474Z,88
2023-03-14T08:03:23.332Z,87
2023-03-14T08:04:25.618Z,86
2023-03-14T08:05:22.364Z,86
2023-03-14T08:06:36.611Z,87
2023-03-14T08:07:29.679Z,86
2023-03-14T08:08:22.277Z,86
2023-03-14T08:09:34.844Z,86
2023-03-14T08:10:20.204Z,86
2023-03-14T08:11:22.414Z,87
2023-03-14T08:12:21.770Z,87
2023-03-14T08:13:32.422Z,87
2023-03-14T08:14:34.304Z,88
2023-03-14T08:15:24.606Z,88
2023-03-14T08:16:25.494Z,88
2023-03-14T08:17:32.573Z,87
2023-03-14T08:18:24.410Z,87
2023-03-14T08:19:21.748Z,86
2023-03-14T08:20:47.516Z,87
2023-03-14T08:21:35.726Z,85
2023-03-14T08:22:33.805Z,84
2023-03-14T08:23:23.436Z,84
2023-03-14T08:24:30.067Z,84
2023-03-14T08:25:29.895Z,83
2023-03-14T08:26:21.774Z,82
2023-03-14T08:27:22.292Z,83
2023-03-14T08:28:36.624Z,81
2023-03-14T08:29:49.761Z,81
2023-03-14T08:30:28.411Z,83
2023-03-14T08:31:29.266Z,84
2023-03-14T08:32:32.797Z,84
2023-03-14T08:33:21.631Z,81
2023-03-14T08:34:40.136Z,83
2023-03-14T08:35:28.489Z,80
2023-03-14T08:36:38.685Z,82
2023-03-14T08:37:31.419Z,80
2023-03-14T08:38:22.609Z,80
2023-03-14T08:39:38.014Z,82
2023-03-14T08:40:21.339Z,80
2023-03-14T08:41:23.212Z,82
2023-03-14T08:42:29.172Z,81
2023-03-14T08:43:40.591Z,82
2023-03-14T08:44:25.249Z,78
2023-03-14T08:45:31.311Z,80
2023-03-14T08:46:19.973Z,81
2023-03-14T08:47:21.665Z,81
2023-03-14T08:48:27.442Z,80
2023-03-14T08:49:20.321Z,78
2023-03-14T08:50:30.906Z,79
2023-03-14T08:51:38.960Z,78
2023-03-14T08:52:33.135Z,81
2023-03-14T08:53:23.697Z,79
2023-03-14T08:54:38.658Z,81
2023-03-14T08:55:20.973Z,78
2023-03-14T08:56:26.297Z,76
2023-03-14T08:57:39.005Z,78
2023-03-14T08:58:42.735Z,79
2023-03-14T08:59:35.574Z,79
2023-03-14T09:00:27.751Z,78
2023-03-14T09:01:22.730Z,81
2023-03-14T09:02:35.399Z,80
2023-03-14T09:03:28.598Z,78
2023-03-14T09:04:22.137Z,78
2023-03-14T09:05:47.472Z,80
2023-03-14T09:06:40.684Z,78
2023-03-14T09:07:38.126Z,78
2023-03-14T09:08:24.401Z,78
2023-03-14T09:09:39.823Z,77
2023-03-14T09:11:06.485Z,76
2023-03-14T09:11:26.365Z,75
2023-03-14T09:12:23.417Z,76
2023-03-14T09:13:36.330Z,77
2023-03-14T09:14:37.895Z,73
2023-03-14T09:15:30.102Z,73
2023-03-14T09:16:21.996Z,72
2023-03-14T09:18:33.001Z,71
2023-03-14T09:19:23.579Z,73
2023-03-14T09:20:47.942Z,72
2023-03-14T09:21:26.960Z,70
2023-03-14T09:22:34.872Z,71
2023-03-14T09:23:21.881Z,70
2023-03-14T09:24:33.183Z,71
2023-03-14T09:25:35.084Z,70
2023-03-14T09:27:20.159Z,72
2023-03-14T09:28:44.714Z,72
2023-03-14T09:29:26.702Z,72
2023-03-14T09:30:29.620Z,70
2023-03-14T09:31:24.664Z,68
2023-03-14T09:32:23.498Z,70
2023-03-14T09:33:33.438Z,70
2023-03-14T09:34:24.690Z,71
2023-03-14T09:35:31.532Z,71
2023-03-14T09:36:44.368Z,73
2023-03-14T09:37:35.356Z,74
2023-03-14T09:38:28.307Z,78
2023-03-14T09:39:44.281Z,79
2023-03-14T09:40:22.260Z,80
2023-03-14T09:41:28.733Z,80
2023-03-14T09:42:24.068Z,81
2023-03-14T09:43:44.476Z,82
2023-03-14T09:44:33.774Z,82
2023-03-14T09:45:27.354Z,82
2023-03-14T09:46:23.510Z,82
2023-03-14T09:48:04.179Z,82
2023-03-14T09:48:29.757Z,82
2023-03-14T09:49:26.431Z,82
2023-03-14T09:50:21.529Z,82
2023-03-14T09:51:41.686Z,82
2023-03-14T09:52:27.918Z,82
2023-03-14T09:53:23.143Z,82
2023-03-14T09:54:22.178Z,82
2023-03-14T09:55:39.588Z,82
2023-03-14T09:56:25.300Z,82
2023-03-14T09:57:23.999Z,82
2023-03-14T09:58:37.360Z,82
2023-03-14T09:59:29.476Z,82
2023-03-14T10:00:23.303Z,82
2023-03-14T10:01:24.976Z,82
2023-03-14T10:02:44.995Z,82
2023-03-14T10:03:27.112Z,82
2023-03-14T10:04:21.070Z,82
2023-03-14T10:05:22.267Z,82
2023-03-14T10:06:43.987Z,83
2023-03-14T10:07:24.881Z,83
2023-03-14T10:08:21.399Z,82
2023-03-14T10:09:22.812Z,82
2023-03-14T10:10:25.736Z,82
2023-03-14T10:11:22.694Z,83
2023-03-14T10:12:25.441Z,82
2023-03-14T10:13:27.756Z,81
2023-03-14T10:14:23.206Z,82
2023-03-14T10:15:19.275Z,82
2023-03-14T10:16:25.254Z,82
2023-03-14T10:17:41.104Z,82
2023-03-14T10:18:21.153Z,81
2023-03-14T10:19:31.493Z,82
2023-03-14T10:20:22.207Z,82
2023-03-14T10:21:37.306Z,81
2023-03-14T10:22:21.807Z,81
2023-03-14T10:23:31.921Z,82
2023-03-14T10:24:22.501Z,82
2023-03-14T10:25:25.068Z,82
2023-03-14T10:26:31.344Z,81
2023-03-14T10:27:28.380Z,82
2023-03-14T10:28:23.795Z,82
2023-03-14T10:29:20.859Z,82
2023-03-14T10:30:29.384Z,82
2023-03-14T10:31:28.117Z,81
2023-03-14T10:32:42.712Z,81
2023-03-14T10:33:38.416Z,82
2023-03-14T10:34:31.598Z,81
2023-03-14T10:35:23.614Z,82
2023-03-14T10:36:20.253Z,81
2023-03-14T10:37:33.730Z,81
2023-03-14T10:38:33.547Z,81
2023-03-14T10:39:26.309Z,81
2023-03-14T10:40:43.059Z,80
2023-03-14T10:41:34.939Z,81
2023-03-14T10:42:28.425Z,81
2023-03-14T10:43:20.636Z,80
2023-03-14T10:44:41.390Z,81
2023-03-14T10:45:36.118Z,80
2023-03-14T10:46:29.204Z,80
2023-03-14T10:47:21.644Z,78
2023-03-14T10:48:33.106Z,79
2023-03-14T10:49:33.077Z,80
2023-03-14T10:50:26.796Z,79
2023-03-14T10:51:47.056Z,80
2023-03-14T10:52:57.777Z,80
2023-03-14T10:53:25.999Z,80
2023-03-14T10:54:24.358Z,80
2023-03-14T10:55:43.281Z,81
2023-03-14T10:56:38.284Z,79
2023-03-14T10:57:30.749Z,81
2023-03-14T10:58:22.451Z,81
2023-03-14T10:59:28.537Z,81
2023-03-14T11:00:35.009Z,81
2023-03-14T11:01:29.641Z,80
2023-03-14T11:02:22.281Z,80
2023-03-14T11:05:01.542Z,80
2023-03-14T11:05:27.207Z,79
2023-03-14T11:06:22.051Z,77
2023-03-14T11:07:39.446Z,77
2023-03-14T11:08:36.346Z,77
2023-03-14T11:09:25.611Z,79
2023-03-14T11:10:26.362Z,78
2023-03-14T11:11:37.751Z,79
2023-03-14T11:12:30.658Z,79
2023-03-14T11:13:26.882Z,77
2023-03-14T11:14:45.976Z,77
2023-03-14T11:15:36.583Z,78
2023-03-14T11:16:29.873Z,79
2023-03-14T11:17:23.231Z,78
2023-03-14T11:18:33.448Z,78
2023-03-14T11:19:45.038Z,78
2023-03-14T11:20:28.936Z,77
2023-03-14T11:21:23.036Z,77
2023-03-14T11:22:35.888Z,77
2023-03-14T11:23:34.387Z,77
2023-03-14T11:24:28.124Z,77
2023-03-14T11:25:47.994Z,77
2023-03-14T11:26:40.944Z,78
2023-03-14T11:27:27.770Z,77
2023-03-14T11:28:25.744Z,77
2023-03-14T11:29:31.456Z,78
2023-03-14T11:30:38.489Z,78
2023-03-14T11:31:31.380Z,78
2023-03-14T11:32:19.873Z,78
2023-03-14T11:33:32.588Z,78
2023-03-14T11:34:36.566Z,79
2023-03-14T11:35:23.986Z,80
2023-03-14T11:36:22.506Z,80
2023-03-14T11:37:43.246Z,79
2023-03-14T11:38:26.188Z,79
2023-03-14T11:39:19.714Z,80
2023-03-14T11:40:20.645Z,79
2023-03-14T11:41:27.345Z,78
2023-03-14T11:42:36.327Z,78
2023-03-14T11:43:26.700Z,78
2023-03-14T11:44:19.578Z,78
2023-03-14T11:45:23.486Z,77
2023-03-14T11:46:21.283Z,76
2023-03-14T11:47:26.233Z,73
2023-03-14T11:48:25.536Z,71
2023-03-14T11:49:23.192Z,74
2023-03-14T11:50:31.974Z,73
2023-03-14T11:51:25.874Z,74
2023-03-14T11:52:23.528Z,72
2023-03-14T11:53:19.729Z,72
2023-03-14T11:54:32.116Z,66
2023-03-14T11:55:21.696Z,70
2023-03-14T11:56:23.700Z,71
2023-03-14T11:57:36.175Z,70
2023-03-14T11:58:27.879Z,71
2023-03-14T11:59:23.420Z,72
2023-03-14T12:00:21.644Z,72
2023-03-14T12:01:32.131Z,63
2023-03-14T12:02:25.390Z,63
2023-03-14T12:03:23.336Z,67
2023-03-14T12:04:33.938Z,63
2023-03-14T12:05:28.111Z,67
2023-03-14T12:06:26.934Z,65
2023-03-14T12:07:19.858Z,57
2023-03-14T12:08:30.414Z,63
2023-03-14T12:09:27.019Z,62
2023-03-14T12:10:22.474Z,57
2023-03-14T12:11:32.798Z,61
2023-03-14T12:12:27.767Z,63
2023-03-14T12:13:23.324Z,60
2023-03-14T12:14:20.843Z,57
2023-03-14T12:15:31.071Z,66
2023-03-14T12:16:25.918Z,67
2023-03-14T12:17:22.897Z,67
2023-03-14T12:18:33.826Z,65
2023-03-14T12:19:28.015Z,59
2023-03-14T12:20:24.723Z,54
2023-03-14T12:21:20.191Z,53
2023-03-14T12:22:20.468Z,62
2023-03-14T12:23:26.071Z,66
2023-03-14T12:24:23.812Z,67
2023-03-14T12:25:23.713Z,64
2023-03-14T12:26:41.295Z,59
2023-03-14T12:27:23.623Z,54
2023-03-14T12:28:21.316Z,63
2023-03-14T12:29:25.779Z,67
2023-03-14T12:30:26.014Z,66
2023-03-14T12:31:23.616Z,67
2023-03-14T12:32:29.372Z,69
2023-03-14T12:33:20.276Z,70
2023-03-14T12:34:25.693Z,71
2023-03-14T12:35:19.287Z,70
2023-03-14T12:36:30.574Z,70
2023-03-14T12:37:21.151Z,71
2023-03-14T12:38:23.561Z,67
2023-03-14T12:39:33.510Z,67
2023-03-14T12:40:30.565Z,68
2023-03-14T12:41:23.573Z,66
2023-03-14T12:42:21.937Z,68
2023-03-14T12:43:31.105Z,61
2023-03-14T12:44:25.579Z,61
2023-03-14T12:45:24.456Z,61
2023-03-14T12:46:38.195Z,59
2023-03-14T12:47:28.445Z,57
2023-03-14T12:48:25.444Z,52
2023-03-14T12:49:19.655Z,52
2023-03-14T12:50:29.393Z,52
2023-03-14T12:51:27.494Z,52
2023-03-14T12:52:22.671Z,55
2023-03-14T12:53:33.978Z,50
2023-03-14T12:54:29.524Z,52
2023-03-14T12:55:25.643Z,54
2023-03-14T12:56:20.314Z,56
2023-03-14T12:57:30.308Z,50
2023-03-14T12:58:25.513Z,49
2023-03-14T12:59:23.878Z,51
2023-03-14T13:00:20.868Z,45
2023-03-14T13:01:27.458Z,51
2023-03-14T13:02:21.528Z,46
2023-03-14T13:03:24.050Z,44
2023-03-14T13:04:38.906Z,46
2023-03-14T13:05:41.420Z,45
2023-03-14T13:06:23.575Z,48
2023-03-14T13:07:23.964Z,46
2023-03-14T13:08:28.169Z,51
2023-03-14T13:09:23.411Z,55
2023-03-14T13:10:20.165Z,51
2023-03-14T13:11:30.518Z,47
2023-03-14T13:12:25.526Z,48
2023-03-14T13:13:21.889Z,53
2023-03-14T13:14:34.610Z,52
2023-03-14T13:15:22.167Z,51
2023-03-14T13:16:24.648Z,53
2023-03-14T13:17:34.034Z,53
2023-03-14T13:18:23.445Z,54
2023-03-14T13:19:21.717Z,58
2023-03-14T13:20:21.979Z,61
2023-03-14T13:21:34.718Z,64
2023-03-14T13:22:27.679Z,65
2023-03-14T13:23:42.688Z,68
2023-03-14T13:24:34.665Z,68
2023-03-14T13:25:27.550Z,68
2023-03-14T13:26:20.756Z,69
2023-03-14T13:27:45.634Z,70
2023-03-14T13:28:39.359Z,70
2023-03-14T13:29:31.573Z,69
2023-03-14T13:30:22.925Z,70
2023-03-14T13:31:34.819Z,68
2023-03-14T13:32:31.911Z,67
2023-03-14T13:33:26.337Z,69
2023-03-14T13:34:49.644Z,70
2023-03-14T13:35:43.232Z,70
2023-03-14T13:36:25.612Z,68
2023-03-14T13:37:28.457Z,69
2023-03-14T13:38:21.473Z,70
2023-03-14T13:39:36.150Z,70
2023-03-14T13:40:28.326Z,70
2023-03-14T13:41:21.432Z,70
2023-03-14T13:42:29.304Z,71
2023-03-14T13:43:39.421Z,71
2023-03-14T13:44:34.415Z,71
2023-03-14T13:45:25.377Z,71
2023-03-14T13:46:41.338Z,71
2023-03-14T13:47:20.998Z,69
2023-03-14T13:48:25.355Z,68
2023-03-14T13:49:50.288Z,69
2023-03-14T13:50:43.681Z,69
2023-03-14T13:51:36.214Z,68
2023-03-14T13:52:28.769Z,69
2023-03-14T13:53:24.224Z,67
2023-03-14T13:54:38.647Z,69
2023-03-14T13:55:22.490Z,66
2023-03-14T13:56:22.558Z,67
2023-03-14T13:57:48.116Z,65
2023-03-14T13:58:23.634Z,60
2023-03-14T13:59:36.259Z,66
2023-03-14T14:00:28.067Z,65
2023-03-14T14:01:40.303Z,63
2023-03-14T14:02:36.299Z,64
2023-03-14T14:03:26.006Z,65
2023-03-14T14:04:23.269Z,64
2023-03-14T14:05:36.955Z,62
2023-03-14T14:06:38.208Z,61
2023-03-14T14:07:33.960Z,59
2023-03-14T14:08:23.921Z,61
2023-03-14T14:09:37.213Z,62
2023-03-14T14:10:30.294Z,62
2023-03-14T14:11:28.055Z,61
2023-03-14T14:12:50.703Z,60
2023-03-14T14:13:42.834Z,61
2023-03-14T14:14:35.857Z,59
2023-03-14T14:15:20.930Z,57
2023-03-14T14:16:22.600Z,58
2023-03-14T14:17:34.303Z,58
2023-03-14T14:18:28.770Z,59
2023-03-14T14:19:20.399Z,58
2023-03-14T14:20:47.802Z,58
2023-03-14T14:21:26.722Z,58
2023-03-14T14:22:35.793Z,55
2023-03-14T14:23:26.609Z,53
2023-03-14T14:24:38.637Z,54
2023-03-14T14:25:32.520Z,54
2023-03-14T14:26:24.482Z,51
2023-03-14T14:27:50.734Z,54
2023-03-14T14:28:44.508Z,55
2023-03-14T14:29:37.531Z,54
2023-03-14T14:30:30.419Z,52
2023-03-14T14:31:21.488Z,51
2023-03-14T14:32:21.643Z,54
2023-03-14T14:33:28.337Z,54